Current Weather

Agadez

Agadez, Niger (DRZA)

Report from: Friday, April 19, 2024 8:00 AM WAT
Current time: Friday, April 19, 2024 9:08 AM WAT

Nearby weather – Weather history – Daily summaries
Weather forecast

Temperature32.0°C (89.6°F)
Heat index29.8°C (85.6°F)
Dew point-2.0°C (28.4°F)
Winds 5 kts (2.6 m/s, 5.8 mph) East (90°)
Visibility5 mi. (8 km)
Altimeter29.85 in.Hg (1011 mB)
Relative humidity11 %
Density altitude2,103 ft. (641 m)
Flight conditions Marginal Visual Meteorological Conditions
Raw dataDRZA 190700Z 09005KT 8000 NSC 32/M02 Q1011
An error has occurred. This application may no longer respond until reloaded. Reload 🗙